createdAt,value
2022-10-05T00:00:23.495Z,15.78
2022-10-05T00:02:53.300Z,15.79
2022-10-05T00:05:28.828Z,15.79
2022-10-05T00:08:01.832Z,15.80
2022-10-05T00:10:30.415Z,15.79
2022-10-05T00:12:58.086Z,15.80
2022-10-05T00:15:27.337Z,15.79
2022-10-05T00:17:54.958Z,15.80
2022-10-05T00:20:25.711Z,15.78
2022-10-05T00:22:58.462Z,15.78
2022-10-05T00:25:26.433Z,15.78
2022-10-05T00:27:56.785Z,15.78
2022-10-05T00:30:26.243Z,15.79
2022-10-05T00:32:59.522Z,15.79
2022-10-05T00:35:29.236Z,15.77
2022-10-05T00:37:57.428Z,15.76
2022-10-05T00:40:39.147Z,15.76
2022-10-05T00:43:27.082Z,15.75
2022-10-05T00:46:01.900Z,15.75
2022-10-05T00:48:43.369Z,15.73
2022-10-05T00:51:28.814Z,15.72
2022-10-05T00:54:12.532Z,15.70
2022-10-05T00:56:57.634Z,15.70
2022-10-05T00:59:42.543Z,15.68
2022-10-05T01:02:16.699Z,15.67
2022-10-05T01:04:54.363Z,15.66
2022-10-05T01:07:33.610Z,15.66
2022-10-05T01:10:11.510Z,15.66
2022-10-05T01:12:49.538Z,15.64
2022-10-05T01:15:26.062Z,15.62
2022-10-05T01:18:01.774Z,15.61
2022-10-05T01:20:44.353Z,15.60
2022-10-05T01:23:41.770Z,15.59
2022-10-05T01:26:29.018Z,15.57
2022-10-05T01:29:05.744Z,15.56
2022-10-05T01:31:40.372Z,15.56
2022-10-05T01:34:19.365Z,15.55
2022-10-05T01:36:54.950Z,15.52
2022-10-05T01:39:32.385Z,15.50
2022-10-05T01:42:06.552Z,15.48
2022-10-05T01:44:42.265Z,15.45
2022-10-05T01:47:16.882Z,15.43
2022-10-05T01:49:53.565Z,15.40
2022-10-05T01:52:32.949Z,15.39
2022-10-05T01:55:15.136Z,15.36
2022-10-05T01:57:55.325Z,15.36
2022-10-05T02:00:24.587Z,15.33
2022-10-05T02:02:58.069Z,15.30
2022-10-05T02:05:30.478Z,15.28
2022-10-05T02:08:01.382Z,15.25
2022-10-05T02:10:36.216Z,15.23
2022-10-05T02:13:18.217Z,15.20
2022-10-05T02:15:53.982Z,15.15
2022-10-05T02:18:27.865Z,15.11
2022-10-05T02:20:57.716Z,15.09
2022-10-05T02:23:28.060Z,15.05
2022-10-05T02:25:57.358Z,15.05
2022-10-05T02:28:31.628Z,15.03
2022-10-05T02:31:06.840Z,15.01
2022-10-05T02:33:36.312Z,15.00
2022-10-05T02:36:12.246Z,14.96
2022-10-05T02:38:52.034Z,14.96
2022-10-05T02:41:28.861Z,14.95
2022-10-05T02:44:04.844Z,14.94
2022-10-05T02:46:37.846Z,14.93
2022-10-05T02:49:15.551Z,14.91
2022-10-05T02:51:51.751Z,14.92
2022-10-05T02:54:32.106Z,14.90
2022-10-05T02:57:05.822Z,14.90
2022-10-05T02:59:38.994Z,14.89
2022-10-05T03:02:16.237Z,14.89
2022-10-05T03:04:52.180Z,14.87
2022-10-05T03:07:24.563Z,14.86
2022-10-05T03:10:01.278Z,14.86
2022-10-05T03:12:43.876Z,14.87
2022-10-05T03:15:24.726Z,14.87
2022-10-05T03:18:03.091Z,14.87
2022-10-05T03:20:41.008Z,14.87
2022-10-05T03:23:16.884Z,14.86
2022-10-05T03:26:03.102Z,14.87
2022-10-05T03:28:40.714Z,14.87
2022-10-05T03:31:20.213Z,14.88
2022-10-05T03:33:54.280Z,14.88
2022-10-05T03:36:28.612Z,14.89
2022-10-05T03:39:02.641Z,14.89
2022-10-05T03:41:38.849Z,14.91
2022-10-05T03:44:18.349Z,14.92
2022-10-05T03:46:57.614Z,14.93
2022-10-05T03:49:35.053Z,14.92
2022-10-05T03:52:07.582Z,14.95
2022-10-05T03:54:39.640Z,14.97
2022-10-05T03:57:12.191Z,14.98
2022-10-05T03:59:44.726Z,14.99
2022-10-05T04:02:22.511Z,15.01
2022-10-05T04:04:56.808Z,15.01
2022-10-05T04:07:35.039Z,15.00
2022-10-05T04:10:08.038Z,15.01
2022-10-05T04:12:41.127Z,15.02
2022-10-05T04:15:19.262Z,15.02
2022-10-05T04:17:51.017Z,15.02
2022-10-05T04:20:24.164Z,15.02
2022-10-05T04:22:58.876Z,15.02
2022-10-05T04:25:30.697Z,15.02
2022-10-05T04:28:07.543Z,15.02
2022-10-05T04:30:40.706Z,15.03
2022-10-05T04:33:11.368Z,15.03
2022-10-05T04:35:55.173Z,15.03
2022-10-05T04:38:38.560Z,15.03
2022-10-05T04:41:22.522Z,15.03
2022-10-05T04:44:01.008Z,15.01
2022-10-05T04:46:39.936Z,15.02
2022-10-05T04:49:25.456Z,15.02
2022-10-05T04:52:02.695Z,15.02
2022-10-05T04:54:45.268Z,15.02
2022-10-05T04:57:17.560Z,15.02
2022-10-05T05:00:04.470Z,15.03
2022-10-05T05:02:48.985Z,15.02
2022-10-05T05:05:28.406Z,15.04
2022-10-05T05:08:12.130Z,15.03
2022-10-05T05:10:59.208Z,15.03
2022-10-05T05:13:44.688Z,15.02
2022-10-05T05:16:20.982Z,15.02
2022-10-05T05:19:22.060Z,15.02
2022-10-05T05:21:58.274Z,15.01
2022-10-05T05:24:39.582Z,15.01
2022-10-05T05:27:35.038Z,15.02
2022-10-05T05:30:08.493Z,15.01
2022-10-05T05:32:45.535Z,14.99
2022-10-05T05:35:32.093Z,14.99
2022-10-05T05:38:11.256Z,14.98
2022-10-05T05:40:49.309Z,14.95
2022-10-05T05:43:25.331Z,14.94
2022-10-05T05:46:00.368Z,14.94
2022-10-05T05:48:36.215Z,14.94
2022-10-05T05:51:09.205Z,14.93
2022-10-05T05:53:41.803Z,14.92
2022-10-05T05:56:13.973Z,14.93
2022-10-05T05:58:49.373Z,14.93
2022-10-05T06:01:33.152Z,14.91
2022-10-05T06:04:05.790Z,14.92
2022-10-05T06:06:38.339Z,14.92
2022-10-05T06:09:14.366Z,14.90
2022-10-05T06:11:49.399Z,14.91
2022-10-05T06:14:21.403Z,14.91
2022-10-05T06:16:54.590Z,14.90
2022-10-05T06:19:24.827Z,14.90
2022-10-05T06:21:56.282Z,14.91
2022-10-05T06:24:28.520Z,14.89
2022-10-05T06:27:20.009Z,14.90
2022-10-05T06:30:03.986Z,14.90
2022-10-05T06:32:36.108Z,14.90
2022-10-05T06:35:18.414Z,14.92
2022-10-05T06:38:05.593Z,14.91
2022-10-05T06:40:45.005Z,14.92
2022-10-05T06:43:37.702Z,14.93
2022-10-05T06:46:09.984Z,14.93
2022-10-05T06:48:58.847Z,14.93
2022-10-05T06:51:33.200Z,14.93
2022-10-05T06:54:09.828Z,14.94
2022-10-05T06:56:45.995Z,14.96
2022-10-05T06:59:23.547Z,14.97
2022-10-05T07:02:00.544Z,14.98
2022-10-05T07:04:47.094Z,14.99
2022-10-05T07:07:22.419Z,14.99
2022-10-05T07:10:02.546Z,15.00
2022-10-05T07:12:44.209Z,15.01
2022-10-05T07:15:35.809Z,15.02
2022-10-05T07:18:26.943Z,15.04
2022-10-05T07:21:02.683Z,15.06
2022-10-05T07:23:45.441Z,15.07
2022-10-05T07:26:20.632Z,15.11
2022-10-05T07:28:51.984Z,15.09
2022-10-05T07:31:29.673Z,15.12
2022-10-05T07:34:03.872Z,15.11
2022-10-05T07:36:58.816Z,15.13
2022-10-05T07:39:58.446Z,15.15
2022-10-05T07:42:33.922Z,15.12
2022-10-05T07:45:15.794Z,15.13
2022-10-05T07:47:50.758Z,15.14
2022-10-05T07:50:25.106Z,15.15
2022-10-05T07:52:57.557Z,15.14
2022-10-05T07:55:27.381Z,15.15
2022-10-05T07:58:06.733Z,15.17
2022-10-05T08:00:59.540Z,15.18
2022-10-05T08:03:38.283Z,15.20
2022-10-05T08:06:10.151Z,15.20
2022-10-05T08:08:49.047Z,15.23
2022-10-05T08:11:20.034Z,15.24
2022-10-05T08:13:52.641Z,15.26
2022-10-05T08:16:21.197Z,15.27
2022-10-05T08:18:57.755Z,15.28
2022-10-05T08:21:32.173Z,15.29
2022-10-05T08:24:07.862Z,15.29
2022-10-05T08:26:53.837Z,15.31
2022-10-05T08:29:28.210Z,15.33
2022-10-05T08:32:00.145Z,15.36
2022-10-05T08:34:36.098Z,15.38
2022-10-05T08:37:08.108Z,15.38
2022-10-05T08:39:40.819Z,15.39
2022-10-05T08:42:45.390Z,15.41
2022-10-05T08:45:38.758Z,15.44
2022-10-05T08:48:19.876Z,15.46
2022-10-05T08:51:27.608Z,15.49
2022-10-05T08:54:25.026Z,15.49
2022-10-05T08:57:15.495Z,15.53
2022-10-05T09:00:08.863Z,15.54
2022-10-05T09:03:15.901Z,15.58
2022-10-05T09:06:07.052Z,15.61
2022-10-05T09:08:49.192Z,15.64
2022-10-05T09:11:26.278Z,15.67
2022-10-05T09:14:25.498Z,15.70
2022-10-05T09:17:38.508Z,15.75
2022-10-05T09:20:30.757Z,15.79
2022-10-05T09:23:01.031Z,15.83
2022-10-05T09:25:55.176Z,15.91
2022-10-05T09:28:31.035Z,15.96
2022-10-05T09:31:24.084Z,16.00
2022-10-05T09:34:36.074Z,16.04
2022-10-05T09:37:56.885Z,16.10
2022-10-05T09:40:55.343Z,16.17
2022-10-05T09:43:55.367Z,16.24
2022-10-05T09:47:15.472Z,16.28
2022-10-05T09:50:09.008Z,16.29
2022-10-05T09:52:55.745Z,16.33
2022-10-05T09:55:55.470Z,16.38
2022-10-05T09:59:07.360Z,16.45
2022-10-05T10:01:51.622Z,16.50
2022-10-05T10:04:37.785Z,16.57
2022-10-05T10:07:28.302Z,16.67
2022-10-05T10:10:32.369Z,16.77
2022-10-05T10:13:23.222Z,16.82
2022-10-05T10:16:09.521Z,16.85
2022-10-05T10:18:53.994Z,16.87
2022-10-05T10:21:54.860Z,16.87
2022-10-05T10:24:43.533Z,16.90
2022-10-05T10:27:24.025Z,16.92
2022-10-05T10:30:10.101Z,16.96
2022-10-05T10:33:05.374Z,16.98
2022-10-05T10:35:36.791Z,16.99
2022-10-05T10:38:23.752Z,16.98
2022-10-05T10:41:27.920Z,16.95
2022-10-05T10:44:34.018Z,16.93
2022-10-05T10:47:29.818Z,16.96
2022-10-05T10:50:23.477Z,16.97
2022-10-05T10:53:05.676Z,16.96
2022-10-05T10:55:43.581Z,16.97
2022-10-05T10:58:49.694Z,16.99
2022-10-05T11:01:31.738Z,17.01
2022-10-05T11:04:32.019Z,17.05
2022-10-05T11:07:29.558Z,17.08
2022-10-05T11:10:15.609Z,17.09
2022-10-05T11:13:26.090Z,17.10
2022-10-05T11:16:19.806Z,17.12
2022-10-05T11:19:12.325Z,17.12
2022-10-05T11:21:51.369Z,17.15
2022-10-05T11:24:41.028Z,17.17
2022-10-05T11:27:28.451Z,17.22
2022-10-05T11:30:23.014Z,17.26
2022-10-05T11:33:24.385Z,17.32
2022-10-05T11:36:34.928Z,17.35
2022-10-05T11:39:38.842Z,17.38
2022-10-05T11:42:44.855Z,17.41
2022-10-05T11:45:22.631Z,17.45
2022-10-05T11:48:08.714Z,17.48
2022-10-05T11:50:43.458Z,17.52
2022-10-05T11:53:18.456Z,17.55
2022-10-05T11:55:57.633Z,17.60
2022-10-05T11:58:30.810Z,17.65
2022-10-05T12:01:05.064Z,17.72
2022-10-05T12:03:45.181Z,17.85
2022-10-05T12:06:29.320Z,18.04
2022-10-05T12:09:11.936Z,18.21
2022-10-05T12:11:58.062Z,18.20
2022-10-05T12:14:39.732Z,18.17
2022-10-05T12:17:17.085Z,18.16
2022-10-05T12:19:49.083Z,18.18
2022-10-05T12:22:21.933Z,18.18
2022-10-05T12:25:05.118Z,18.21
2022-10-05T12:27:38.213Z,18.31
2022-10-05T12:30:15.805Z,18.50
2022-10-05T12:32:59.382Z,18.64
2022-10-05T12:35:47.869Z,18.71
2022-10-05T12:38:24.849Z,18.95
2022-10-05T12:41:01.726Z,19.01
2022-10-05T12:43:38.264Z,19.11
2022-10-05T12:46:18.053Z,19.12
2022-10-05T12:49:08.736Z,19.25
2022-10-05T12:51:42.893Z,19.56
2022-10-05T12:54:17.873Z,19.75
2022-10-05T12:56:54.581Z,19.80
2022-10-05T12:59:35.011Z,19.79
2022-10-05T13:02:11.922Z,19.65
2022-10-05T13:04:47.194Z,19.50
2022-10-05T13:07:29.863Z,19.40
2022-10-05T13:10:10.517Z,19.23
2022-10-05T13:12:49.613Z,19.10
2022-10-05T13:15:24.400Z,18.98
2022-10-05T13:18:05.230Z,18.90
2022-10-05T13:20:37.979Z,18.88
2022-10-05T13:23:13.558Z,18.83
2022-10-05T13:25:51.681Z,18.76
2022-10-05T13:28:25.969Z,18.70
2022-10-05T13:31:03.254Z,18.70
2022-10-05T13:34:02.334Z,18.70
2022-10-05T13:36:40.678Z,18.71
2022-10-05T13:39:21.882Z,18.72
2022-10-05T13:41:55.551Z,18.72
2022-10-05T13:44:32.044Z,18.74
2022-10-05T13:47:02.785Z,18.84
2022-10-05T13:49:42.328Z,18.91
2022-10-05T13:52:22.085Z,19.04
2022-10-05T13:54:59.622Z,19.20
2022-10-05T13:57:45.199Z,19.40
2022-10-05T14:00:22.607Z,19.54
2022-10-05T14:02:56.874Z,19.69
2022-10-05T14:05:29.440Z,19.77
2022-10-05T14:07:59.155Z,19.84
2022-10-05T14:10:37.476Z,19.91
2022-10-05T14:13:22.882Z,20.19
2022-10-05T14:16:04.380Z,20.34
2022-10-05T14:18:34.679Z,20.40
2022-10-05T14:21:16.491Z,20.54
2022-10-05T14:23:44.567Z,20.63
2022-10-05T14:26:20.637Z,20.46
2022-10-05T14:29:00.252Z,20.67
2022-10-05T14:31:30.984Z,20.77
2022-10-05T14:34:17.759Z,20.64
2022-10-05T14:36:47.060Z,20.41
2022-10-05T14:39:14.836Z,20.15
2022-10-05T14:41:48.733Z,19.84
2022-10-05T14:44:28.445Z,19.69
2022-10-05T14:46:58.746Z,19.64
2022-10-05T14:49:29.018Z,19.52
2022-10-05T14:51:58.626Z,19.41
2022-10-05T14:54:49.164Z,19.23
2022-10-05T14:57:25.182Z,19.13
2022-10-05T15:00:03.884Z,19.07
2022-10-05T15:03:05.476Z,19.07
2022-10-05T15:05:39.972Z,19.04
2022-10-05T15:08:21.040Z,19.02
2022-10-05T15:10:53.577Z,19.13
2022-10-05T15:13:25.354Z,19.15
2022-10-05T15:15:55.957Z,19.07
2022-10-05T15:18:37.264Z,18.96
2022-10-05T15:21:22.541Z,18.83
2022-10-05T15:23:55.166Z,18.71
2022-10-05T15:26:36.230Z,18.63
2022-10-05T15:29:17.799Z,18.53
2022-10-05T15:31:57.643Z,18.46
2022-10-05T15:34:33.564Z,18.42
2022-10-05T15:37:10.225Z,18.37
2022-10-05T15:39:45.208Z,18.33
2022-10-05T15:42:15.190Z,18.29
2022-10-05T15:44:55.116Z,18.23
2022-10-05T15:47:27.094Z,18.18
2022-10-05T15:50:04.349Z,18.16
2022-10-05T15:52:38.511Z,18.12
2022-10-05T15:55:22.123Z,18.09
2022-10-05T15:57:57.706Z,18.07
2022-10-05T16:00:26.954Z,18.05
2022-10-05T16:03:05.025Z,18.04
2022-10-05T16:06:07.430Z,17.98
2022-10-05T16:08:58.495Z,17.94
2022-10-05T16:12:00.053Z,17.90
2022-10-05T16:14:36.343Z,17.88
2022-10-05T16:17:15.493Z,17.84
2022-10-05T16:19:54.589Z,17.81
2022-10-05T16:22:29.073Z,17.79
2022-10-05T16:25:03.797Z,17.73
2022-10-05T16:27:43.713Z,17.71
2022-10-05T16:30:16.511Z,17.69
2022-10-05T16:32:49.917Z,17.66
2022-10-05T16:35:29.137Z,17.62
2022-10-05T16:38:08.053Z,17.59
2022-10-05T16:40:45.198Z,17.57
2022-10-05T16:43:26.734Z,17.51
2022-10-05T16:46:10.074Z,17.47
2022-10-05T16:48:46.096Z,17.44
2022-10-05T16:51:21.721Z,17.43
2022-10-05T16:54:01.631Z,17.41
2022-10-05T16:56:35.214Z,17.38
2022-10-05T16:59:26.090Z,17.35
2022-10-05T17:02:05.901Z,17.33
2022-10-05T17:04:46.047Z,17.31
2022-10-05T17:07:34.966Z,17.30
2022-10-05T17:10:33.766Z,17.27
2022-10-05T17:13:13.528Z,17.27
2022-10-05T17:16:01.180Z,17.24
2022-10-05T17:18:53.139Z,17.23
2022-10-05T17:21:28.334Z,17.22
2022-10-05T17:24:02.963Z,17.19
2022-10-05T17:26:39.586Z,17.17
2022-10-05T17:29:16.781Z,17.17
2022-10-05T17:32:12.744Z,17.16
2022-10-05T17:35:18.168Z,17.14
2022-10-05T17:38:18.147Z,17.14
2022-10-05T17:41:16.046Z,17.11
2022-10-05T17:44:20.654Z,17.10
2022-10-05T17:46:50.801Z,17.09
2022-10-05T17:49:47.466Z,17.09
2022-10-05T17:52:44.255Z,17.09
2022-10-05T17:55:29.926Z,17.09
2022-10-05T17:58:00.002Z,17.09
2022-10-05T18:00:43.590Z,17.09
2022-10-05T18:03:33.979Z,17.09
2022-10-05T18:06:31.778Z,17.09
2022-10-05T18:09:33.184Z,17.08
2022-10-05T18:12:09.609Z,17.08
2022-10-05T18:14:55.282Z,17.08
2022-10-05T18:17:45.304Z,17.11
2022-10-05T18:20:18.993Z,17.10
2022-10-05T18:22:50.637Z,17.08
2022-10-05T18:25:27.126Z,17.09
2022-10-05T18:28:12.217Z,17.08
2022-10-05T18:30:59.171Z,17.09
2022-10-05T18:33:46.641Z,17.09
2022-10-05T18:36:27.416Z,17.10
2022-10-05T18:39:04.374Z,17.11
2022-10-05T18:41:45.381Z,17.11
2022-10-05T18:44:31.044Z,17.12
2022-10-05T18:47:06.373Z,17.12
2022-10-05T18:49:50.380Z,17.13
2022-10-05T18:52:26.490Z,17.14
2022-10-05T18:55:06.309Z,17.14
2022-10-05T18:57:49.374Z,17.17
2022-10-05T19:00:19.993Z,17.21
2022-10-05T19:02:52.272Z,17.20
2022-10-05T19:05:48.799Z,17.23
2022-10-05T19:08:29.682Z,17.25
2022-10-05T19:11:06.177Z,17.27
2022-10-05T19:13:44.374Z,17.29
2022-10-05T19:16:41.745Z,17.31
2022-10-05T19:19:32.381Z,17.32
2022-10-05T19:22:05.923Z,17.26
2022-10-05T19:24:47.364Z,17.21
2022-10-05T19:27:25.455Z,17.24
2022-10-05T19:30:11.509Z,17.27
2022-10-05T19:32:51.003Z,17.29
2022-10-05T19:35:26.261Z,17.31
2022-10-05T19:38:09.608Z,17.31
2022-10-05T19:40:46.004Z,17.31
2022-10-05T19:43:29.321Z,17.33
2022-10-05T19:46:06.260Z,17.32
2022-10-05T19:48:43.120Z,17.30
2022-10-05T19:51:15.872Z,17.16
2022-10-05T19:53:50.011Z,16.79
2022-10-05T19:56:20.258Z,16.38
2022-10-05T19:58:53.154Z,16.00
2022-10-05T20:01:26.148Z,15.72
2022-10-05T20:03:55.428Z,15.52
2022-10-05T20:06:23.123Z,15.38
2022-10-05T20:08:52.863Z,15.27
2022-10-05T20:11:22.605Z,15.16
2022-10-05T20:14:19.593Z,15.04
2022-10-05T20:17:04.985Z,15.00
2022-10-05T20:19:57.434Z,14.98
2022-10-05T20:22:31.498Z,14.96
2022-10-05T20:25:01.184Z,14.96
2022-10-05T20:27:46.461Z,14.94
2022-10-05T20:30:18.338Z,14.88
2022-10-05T20:32:48.877Z,14.85
2022-10-05T20:35:16.852Z,14.84
2022-10-05T20:37:44.595Z,14.82
2022-10-05T20:40:12.886Z,14.81
2022-10-05T20:42:40.507Z,14.82
2022-10-05T20:45:09.262Z,14.82
2022-10-05T20:47:38.938Z,14.81
2022-10-05T20:50:09.042Z,14.83
2022-10-05T20:52:37.545Z,14.85
2022-10-05T20:55:05.981Z,14.86
2022-10-05T20:57:33.940Z,14.86
2022-10-05T21:00:01.611Z,14.85
2022-10-05T21:02:29.441Z,14.85
2022-10-05T21:04:58.465Z,14.83
2022-10-05T21:07:26.190Z,14.82
2022-10-05T21:09:55.631Z,14.81
2022-10-05T21:12:23.286Z,14.77
2022-10-05T21:14:52.688Z,14.71
2022-10-05T21:17:20.326Z,14.62
2022-10-05T21:19:48.045Z,14.54
2022-10-05T21:22:17.066Z,14.50
2022-10-05T21:24:45.690Z,14.45
2022-10-05T21:27:13.823Z,14.41
2022-10-05T21:29:42.194Z,14.41
2022-10-05T21:32:11.737Z,14.39
2022-10-05T21:34:40.102Z,14.37
2022-10-05T21:37:08.207Z,14.34
2022-10-05T21:39:37.183Z,14.31
2022-10-05T21:42:05.279Z,14.29
2022-10-05T21:44:32.997Z,14.29
2022-10-05T21:47:02.324Z,14.27
2022-10-05T21:49:30.101Z,14.25
2022-10-05T21:51:58.047Z,14.24
2022-10-05T21:54:25.558Z,14.24
2022-10-05T21:56:58.324Z,14.21
2022-10-05T21:59:30.514Z,14.20
2022-10-05T22:01:58.388Z,14.17
2022-10-05T22:04:25.908Z,14.13
2022-10-05T22:06:54.488Z,14.08
2022-10-05T22:09:22.108Z,14.02
2022-10-05T22:11:49.882Z,13.95
2022-10-05T22:14:18.875Z,13.91
2022-10-05T22:16:47.180Z,13.85
2022-10-05T22:19:17.560Z,13.79
2022-10-05T22:21:45.195Z,13.75
2022-10-05T22:24:12.846Z,13.72
2022-10-05T22:26:42.838Z,13.68
2022-10-05T22:29:10.655Z,13.65
2022-10-05T22:31:40.257Z,13.64
2022-10-05T22:34:07.949Z,13.61
2022-10-05T22:36:35.993Z,13.59
2022-10-05T22:39:03.781Z,13.57
2022-10-05T22:41:31.396Z,13.56
2022-10-05T22:43:59.080Z,13.54
2022-10-05T22:46:26.832Z,13.53
2022-10-05T22:48:55.842Z,13.52
2022-10-05T22:51:23.453Z,13.51
2022-10-05T22:53:51.358Z,13.48
2022-10-05T22:56:18.840Z,13.50
2022-10-05T22:58:47.164Z,13.47
2022-10-05T23:01:17.539Z,13.46
2022-10-05T23:03:46.048Z,13.45
2022-10-05T23:06:16.717Z,13.45
2022-10-05T23:08:44.710Z,13.43
2022-10-05T23:11:13.042Z,13.44
2022-10-05T23:13:40.518Z,13.43
2022-10-05T23:16:09.842Z,13.39
2022-10-05T23:18:38.102Z,13.38
2022-10-05T23:21:07.345Z,13.36
2022-10-05T23:23:38.642Z,13.35
2022-10-05T23:26:08.031Z,13.35
2022-10-05T23:28:35.721Z,13.36
2022-10-05T23:31:06.061Z,13.37
2022-10-05T23:33:34.165Z,13.37
2022-10-05T23:36:03.496Z,13.38
2022-10-05T23:38:31.833Z,13.39
2022-10-05T23:41:01.097Z,13.41
2022-10-05T23:43:29.246Z,13.44
2022-10-05T23:45:57.179Z,13.45
2022-10-05T23:48:25.161Z,13.46
2022-10-05T23:50:54.097Z,13.44
2022-10-05T23:53:21.827Z,13.44
2022-10-05T23:55:50.657Z,13.42
2022-10-05T23:58:20.077Z,13.37
